sensor_id;sensor_type;location;lat;lon;timestamp;pressure;altitude;pressure_sealevel;temperature;humidity
63190;BME280;49286;44.460;26.114;2023-01-13T00:02:21;100869.28;;;0.74;100.00
63190;BME280;49286;44.460;26.114;2023-01-13T00:04:46;100730.97;;;-0.48;100.00
63190;BME280;49286;44.460;26.114;2023-01-13T00:07:12;100879.19;;;0.29;100.00
63190;BME280;49286;44.460;26.114;2023-01-13T00:09:37;100742.84;;;-0.34;100.00
63190;BME280;49286;44.460;26.114;2023-01-13T00:12:04;100843.50;;;0.38;100.00
63190;BME280;49286;44.460;26.114;2023-01-13T00:14:33;100785.88;;;-0.33;100.00
63190;BME280;49286;44.460;26.114;2023-01-13T00:16:58;100865.88;;;0.03;100.00
63190;BME280;49286;44.460;26.114;2023-01-13T00:19:24;100881.94;;;0.15;100.00
63190;BME280;49286;44.460;26.114;2023-01-13T00:21:49;100771.88;;;-0.20;100.00
63190;BME280;49286;44.460;26.114;2023-01-13T00:24:14;100721.13;;;-0.73;100.00
63190;BME280;49286;44.460;26.114;2023-01-13T00:26:40;100860.53;;;0.16;100.00
63190;BME280;49286;44.460;26.114;2023-01-13T00:29:05;100877.84;;;0.37;100.00
63190;BME280;49286;44.460;26.114;2023-01-13T00:31:31;100752.75;;;-0.25;100.00
63190;BME280;49286;44.460;26.114;2023-01-13T00:33:58;100884.38;;;0.30;100.00
63190;BME280;49286;44.460;26.114;2023-01-13T00:36:24;100857.78;;;0.13;100.00
63190;BME280;49286;44.460;26.114;2023-01-13T00:38:50;100836.78;;;0.24;100.00
63190;BME280;49286;44.460;26.114;2023-01-13T00:41:20;100775.50;;;0.02;100.00
63190;BME280;49286;44.460;26.114;2023-01-13T00:43:48;100887.00;;;0.66;100.00
63190;BME280;49286;44.460;26.114;2023-01-13T00:46:17;100771.00;;;0.15;100.00
63190;BME280;49286;44.460;26.114;2023-01-13T00:48:43;100896.31;;;1.00;100.00
63190;BME280;49286;44.460;26.114;2023-01-13T00:51:17;100786.53;;;0.35;100.00
63190;BME280;49286;44.460;26.114;2023-01-13T00:53:46;100887.69;;;0.99;100.00
63190;BME280;49286;44.460;26.114;2023-01-13T00:56:21;100874.44;;;0.74;100.00
63190;BME280;49286;44.460;26.114;2023-01-13T00:58:48;100906.59;;;0.98;100.00
63190;BME280;49286;44.460;26.114;2023-01-13T01:01:18;100778.09;;;0.19;100.00
63190;BME280;49286;44.460;26.114;2023-01-13T01:03:47;100907.06;;;1.09;100.00
63190;BME280;49286;44.460;26.114;2023-01-13T01:06:15;100896.41;;;1.21;100.00
63190;BME280;49286;44.460;26.114;2023-01-13T01:08:42;100903.16;;;1.17;100.00
63190;BME280;49286;44.460;26.114;2023-01-13T01:11:10;100787.13;;;0.47;100.00
63190;BME280;49286;44.460;26.114;2023-01-13T01:13:37;100904.09;;;1.19;100.00
63190;BME280;49286;44.460;26.114;2023-01-13T01:16:07;100856.59;;;0.98;100.00
63190;BME280;49286;44.460;26.114;2023-01-13T01:18:35;100929.44;;;1.26;100.00
63190;BME280;49286;44.460;26.114;2023-01-13T01:21:01;100921.34;;;0.65;100.00
63190;BME280;49286;44.460;26.114;2023-01-13T01:23:28;100896.34;;;0.82;100.00
63190;BME280;49286;44.460;26.114;2023-01-13T01:25:54;100817.41;;;0.69;100.00
63190;BME280;49286;44.460;26.114;2023-01-13T01:28:20;100911.78;;;1.37;100.00
63190;BME280;49286;44.460;26.114;2023-01-13T01:30:45;100797.47;;;0.11;100.00
63190;BME280;49286;44.460;26.114;2023-01-13T01:33:11;100933.78;;;1.10;100.00
63190;BME280;49286;44.460;26.114;2023-01-13T01:35:39;100808.94;;;0.54;100.00
63190;BME280;49286;44.460;26.114;2023-01-13T01:38:05;100938.28;;;1.32;100.00
63190;BME280;49286;44.460;26.114;2023-01-13T01:40:30;100856.03;;;0.86;100.00
63190;BME280;49286;44.460;26.114;2023-01-13T01:42:56;100814.09;;;0.54;100.00
63190;BME280;49286;44.460;26.114;2023-01-13T01:45:40;100827.06;;;0.73;100.00
63190;BME280;49286;44.460;26.114;2023-01-13T01:48:06;100942.75;;;1.36;100.00
63190;BME280;49286;44.460;26.114;2023-01-13T01:50:33;100923.75;;;1.35;100.00
63190;BME280;49286;44.460;26.114;2023-01-13T01:53:08;100829.31;;;0.66;100.00
63190;BME280;49286;44.460;26.114;2023-01-13T01:55:36;100932.81;;;1.25;100.00
63190;BME280;49286;44.460;26.114;2023-01-13T01:58:17;100959.00;;;1.33;100.00
63190;BME280;49286;44.460;26.114;2023-01-13T02:00:45;100849.13;;;0.49;100.00
63190;BME280;49286;44.460;26.114;2023-01-13T02:03:10;100844.72;;;0.64;100.00
63190;BME280;49286;44.460;26.114;2023-01-13T02:05:36;100888.88;;;0.70;100.00
63190;BME280;49286;44.460;26.114;2023-01-13T02:08:03;100852.84;;;0.36;100.00
63190;BME280;49286;44.460;26.114;2023-01-13T02:10:30;100969.47;;;0.99;100.00
63190;BME280;49286;44.460;26.114;2023-01-13T02:13:01;100849.28;;;0.70;100.00
63190;BME280;49286;44.460;26.114;2023-01-13T02:21:11;100866.66;;;0.54;100.00
63190;BME280;49286;44.460;26.114;2023-01-13T02:24:00;100955.47;;;0.76;100.00
63190;BME280;49286;44.460;26.114;2023-01-13T02:35:41;100783.59;;;-0.27;100.00
63190;BME280;49286;44.460;26.114;2023-01-13T02:38:13;100911.94;;;0.66;100.00
63190;BME280;49286;44.460;26.114;2023-01-13T02:43:28;100909.94;;;0.78;100.00
63190;BME280;49286;44.460;26.114;2023-01-13T02:46:21;100908.22;;;0.96;100.00
63190;BME280;49286;44.460;26.114;2023-01-13T02:48:51;100887.22;;;0.53;100.00
63190;BME280;49286;44.460;26.114;2023-01-13T02:51:21;100915.44;;;0.86;100.00
63190;BME280;49286;44.460;26.114;2023-01-13T02:56:15;100902.00;;;1.11;100.00
63190;BME280;49286;44.460;26.114;2023-01-13T02:58:42;100903.72;;;0.92;100.00
63190;BME280;49286;44.460;26.114;2023-01-13T03:01:09;100907.63;;;0.84;100.00
63190;BME280;49286;44.460;26.114;2023-01-13T03:03:35;100907.06;;;1.09;100.00
63190;BME280;49286;44.460;26.114;2023-01-13T03:09:21;100909.72;;;0.73;100.00
63190;BME280;49286;44.460;26.114;2023-01-13T03:12:09;100919.59;;;0.64;100.00
63190;BME280;49286;44.460;26.114;2023-01-13T03:14:45;100849.63;;;0.40;100.00
63190;BME280;49286;44.460;26.114;2023-01-13T03:17:31;100912.50;;;0.60;100.00
63190;BME280;49286;44.460;26.114;2023-01-13T03:20:04;100920.25;;;0.60;100.00
63190;BME280;49286;44.460;26.114;2023-01-13T03:22:45;100888.97;;;0.54;100.00
63190;BME280;49286;44.460;26.114;2023-01-13T03:25:23;100827.91;;;0.54;100.00
63190;BME280;49286;44.460;26.114;2023-01-13T03:27:56;100914.25;;;1.15;100.00
63190;BME280;49286;44.460;26.114;2023-01-13T03:30:33;100916.22;;;1.20;100.00
63190;BME280;49286;44.460;26.114;2023-01-13T03:33:13;100923.25;;;1.05;100.00
63190;BME280;49286;44.460;26.114;2023-01-13T03:35:43;100928.81;;;1.32;100.00
63190;BME280;49286;44.460;26.114;2023-01-13T03:38:13;100874.81;;;0.63;100.00
63190;BME280;49286;44.460;26.114;2023-01-13T03:40:56;100892.59;;;0.75;100.00
63190;BME280;49286;44.460;26.114;2023-01-13T03:43:28;100917.50;;;0.93;100.00
63190;BME280;49286;44.460;26.114;2023-01-13T03:46:19;100928.19;;;1.00;100.00
63190;BME280;49286;44.460;26.114;2023-01-13T03:48:49;100915.53;;;0.69;100.00
63190;BME280;49286;44.460;26.114;2023-01-13T03:51:18;100890.84;;;0.56;100.00
63190;BME280;49286;44.460;26.114;2023-01-13T03:53:49;100798.72;;;0.02;100.00
63190;BME280;49286;44.460;26.114;2023-01-13T03:56:24;100896.44;;;0.48;100.00
63190;BME280;49286;44.460;26.114;2023-01-13T03:58:51;100791.72;;;-0.01;100.00
63190;BME280;49286;44.460;26.114;2023-01-13T04:01:21;100775.59;;;0.03;100.00
63190;BME280;49286;44.460;26.114;2023-01-13T04:03:56;100921.88;;;0.94;100.00
63190;BME280;49286;44.460;26.114;2023-01-13T04:06:33;100771.75;;;-0.05;100.00
63190;BME280;49286;44.460;26.114;2023-01-13T04:09:13;100900.94;;;1.07;100.00
63190;BME280;49286;44.460;26.114;2023-01-13T04:11:52;100890.53;;;0.68;100.00
63190;BME280;49286;44.460;26.114;2023-01-13T04:14:20;100803.38;;;0.27;100.00
63190;BME280;49286;44.460;26.114;2023-01-13T04:16:48;100775.78;;;-0.10;100.00
63190;BME280;49286;44.460;26.114;2023-01-13T04:19:14;100874.81;;;0.46;100.00
63190;BME280;49286;44.460;26.114;2023-01-13T04:21:39;100881.78;;;0.84;100.00
63190;BME280;49286;44.460;26.114;2023-01-13T04:24:05;100779.19;;;0.62;100.00
63190;BME280;49286;44.460;26.114;2023-01-13T04:26:30;100745.63;;;0.43;100.00
63190;BME280;49286;44.460;26.114;2023-01-13T04:28:56;100766.59;;;0.31;100.00
63190;BME280;49286;44.460;26.114;2023-01-13T04:31:21;100755.59;;;-0.01;100.00
63190;BME280;49286;44.460;26.114;2023-01-13T04:33:47;100857.88;;;0.88;100.00
63190;BME280;49286;44.460;26.114;2023-01-13T04:36:12;100867.19;;;1.22;100.00
63190;BME280;49286;44.460;26.114;2023-01-13T04:38:39;100780.84;;;0.79;100.00
63190;BME280;49286;44.460;26.114;2023-01-13T04:41:05;100895.63;;;1.41;100.00
63190;BME280;49286;44.460;26.114;2023-01-13T04:43:31;100863.34;;;1.33;100.00
63190;BME280;49286;44.460;26.114;2023-01-13T04:45:56;100888.41;;;1.34;100.00
63190;BME280;49286;44.460;26.114;2023-01-13T04:48:21;100782.75;;;0.46;100.00
63190;BME280;49286;44.460;26.114;2023-01-13T04:50:47;100908.88;;;1.49;100.00
63190;BME280;49286;44.460;26.114;2023-01-13T04:53:12;100896.50;;;1.42;100.00
63190;BME280;49286;44.460;26.114;2023-01-13T04:55:38;100921.09;;;1.14;100.00
63190;BME280;49286;44.460;26.114;2023-01-13T04:58:08;100937.34;;;1.12;100.00
63190;BME280;49286;44.460;26.114;2023-01-13T05:00:35;100915.34;;;1.39;100.00
63190;BME280;49286;44.460;26.114;2023-01-13T05:03:01;100795.63;;;0.82;100.00
63190;BME280;49286;44.460;26.114;2023-01-13T05:05:28;100792.88;;;0.59;100.00
63190;BME280;49286;44.460;26.114;2023-01-13T05:07:54;100797.59;;;0.88;100.00
63190;BME280;49286;44.460;26.114;2023-01-13T05:10:20;100919.72;;;1.60;100.00
63190;BME280;49286;44.460;26.114;2023-01-13T05:12:46;100714.22;;;0.33;100.00
63190;BME280;49286;44.460;26.114;2023-01-13T05:15:30;100923.72;;;1.73;100.00
63190;BME280;49286;44.460;26.114;2023-01-13T05:18:21;100807.25;;;1.11;100.00
63190;BME280;49286;44.460;26.114;2023-01-13T05:20:47;100808.97;;;1.11;100.00
63190;BME280;49286;44.460;26.114;2023-01-13T05:23:13;100934.25;;;1.77;100.00
63190;BME280;49286;44.460;26.114;2023-01-13T05:25:57;100946.63;;;1.84;100.00
63190;BME280;49286;44.460;26.114;2023-01-13T05:28:23;100923.75;;;1.94;100.00
63190;BME280;49286;44.460;26.114;2023-01-13T05:30:48;100913.00;;;1.84;100.00
63190;BME280;49286;44.460;26.114;2023-01-13T05:33:17;100824.44;;;1.30;100.00
63190;BME280;49286;44.460;26.114;2023-01-13T05:35:45;100833.38;;;1.37;100.00
63190;BME280;49286;44.460;26.114;2023-01-13T05:38:11;100920.38;;;1.75;100.00
63190;BME280;49286;44.460;26.114;2023-01-13T05:40:38;100819.91;;;1.24;100.00
63190;BME280;49286;44.460;26.114;2023-01-13T05:43:22;100958.44;;;1.97;100.00
63190;BME280;49286;44.460;26.114;2023-01-13T05:45:57;100912.59;;;1.75;100.00
63190;BME280;49286;44.460;26.114;2023-01-13T05:48:29;100936.78;;;1.95;100.00
63190;BME280;49286;44.460;26.114;2023-01-13T05:50:55;100836.41;;;1.28;100.00
63190;BME280;49286;44.460;26.114;2023-01-13T05:53:21;100935.91;;;1.95;100.00
63190;BME280;49286;44.460;26.114;2023-01-13T05:55:47;100952.69;;;2.04;100.00
63190;BME280;49286;44.460;26.114;2023-01-13T05:58:14;100948.47;;;1.87;100.00
63190;BME280;49286;44.460;26.114;2023-01-13T06:00:40;100973.25;;;2.01;100.00
63190;BME280;49286;44.460;26.114;2023-01-13T06:03:06;100984.50;;;2.02;100.00
63190;BME280;49286;44.460;26.114;2023-01-13T06:05:32;100867.94;;;1.39;100.00
63190;BME280;49286;44.460;26.114;2023-01-13T06:07:59;100899.34;;;1.67;100.00
63190;BME280;49286;44.460;26.114;2023-01-13T06:10:26;100995.38;;;2.14;100.00
63190;BME280;49286;44.460;26.114;2023-01-13T06:12:51;101005.69;;;1.93;100.00
63190;BME280;49286;44.460;26.114;2023-01-13T06:15:17;100919.72;;;1.60;100.00
63190;BME280;49286;44.460;26.114;2023-01-13T06:17:43;100886.47;;;1.50;100.00
63190;BME280;49286;44.460;26.114;2023-01-13T06:20:09;100919.34;;;1.52;100.00
63190;BME280;49286;44.460;26.114;2023-01-13T06:22:37;101024.16;;;2.20;100.00
63190;BME280;49286;44.460;26.114;2023-01-13T06:25:20;101018.00;;;2.18;100.00
63190;BME280;49286;44.460;26.114;2023-01-13T06:27:47;101037.97;;;2.21;100.00
63190;BME280;49286;44.460;26.114;2023-01-13T06:30:13;100944.81;;;1.43;100.00
63190;BME280;49286;44.460;26.114;2023-01-13T06:32:44;100924.59;;;1.54;100.00
63190;BME280;49286;44.460;26.114;2023-01-13T06:35:13;100924.22;;;1.64;100.00
63190;BME280;49286;44.460;26.114;2023-01-13T06:37:43;101017.94;;;2.17;100.00
63190;BME280;49286;44.460;26.114;2023-01-13T06:40:10;100935.44;;;1.64;100.00
63190;BME280;49286;44.460;26.114;2023-01-13T06:42:37;101028.59;;;2.24;100.00
63190;BME280;49286;44.460;26.114;2023-01-13T06:45:22;100993.81;;;1.98;100.00
63190;BME280;49286;44.460;26.114;2023-01-13T06:47:49;101056.69;;;2.35;100.00
63190;BME280;49286;44.460;26.114;2023-01-13T06:50:19;101055.50;;;2.47;100.00
63190;BME280;49286;44.460;26.114;2023-01-13T06:52:45;101035.34;;;2.40;100.00
63190;BME280;49286;44.460;26.114;2023-01-13T06:55:10;101010.63;;;2.08;100.00
63190;BME280;49286;44.460;26.114;2023-01-13T06:57:49;100942.66;;;1.72;100.00
63190;BME280;49286;44.460;26.114;2023-01-13T07:00:15;101025.56;;;2.14;100.00
63190;BME280;49286;44.460;26.114;2023-01-13T07:02:41;101060.13;;;2.54;100.00
63190;BME280;49286;44.460;26.114;2023-01-13T07:05:06;101078.63;;;2.62;100.00
63190;BME280;49286;44.460;26.114;2023-01-13T07:07:32;101043.53;;;2.30;100.00
63190;BME280;49286;44.460;26.114;2023-01-13T07:09:58;100959.84;;;1.90;100.00
63190;BME280;49286;44.460;26.114;2023-01-13T07:12:24;101086.31;;;2.61;100.00
63190;BME280;49286;44.460;26.114;2023-01-13T07:14:49;101063.47;;;2.52;100.00
63190;BME280;49286;44.460;26.114;2023-01-13T07:17:33;100992.03;;;2.17;100.00
63190;BME280;49286;44.460;26.114;2023-01-13T07:19:59;100984.72;;;2.06;100.00
63190;BME280;49286;44.460;26.114;2023-01-13T07:22:24;101112.19;;;2.80;100.00
63190;BME280;49286;44.460;26.114;2023-01-13T07:24:50;101128.16;;;2.70;100.00
63190;BME280;49286;44.460;26.114;2023-01-13T07:27:16;101119.50;;;2.69;100.00
63190;BME280;49286;44.460;26.114;2023-01-13T07:29:41;101035.31;;;2.00;100.00
63190;BME280;49286;44.460;26.114;2023-01-13T07:32:08;101010.50;;;2.05;100.00
63190;BME280;49286;44.460;26.114;2023-01-13T07:34:33;101121.94;;;2.66;100.00
63190;BME280;49286;44.460;26.114;2023-01-13T07:36:59;101117.84;;;2.71;100.00
63190;BME280;49286;44.460;26.114;2023-01-13T07:39:25;101148.50;;;3.01;100.00
63190;BME280;49286;44.460;26.114;2023-01-13T07:41:50;101152.91;;;3.04;100.00
63190;BME280;49286;44.460;26.114;2023-01-13T07:44:34;101140.66;;;3.21;100.00
63190;BME280;49286;44.460;26.114;2023-01-13T07:46:59;101142.22;;;2.96;100.00
63190;BME280;49286;44.460;26.114;2023-01-13T07:49:25;101146.00;;;3.04;100.00
63190;BME280;49286;44.460;26.114;2023-01-13T07:51:51;101069.38;;;2.69;100.00
63190;BME280;49286;44.460;26.114;2023-01-13T07:54:16;101152.63;;;3.17;100.00
63190;BME280;49286;44.460;26.114;2023-01-13T07:56:41;101036.63;;;2.50;100.00
63190;BME280;49286;44.460;26.114;2023-01-13T07:59:07;101047.75;;;2.68;100.00
63190;BME280;49286;44.460;26.114;2023-01-13T08:01:32;101057.13;;;2.45;100.00
63190;BME280;49286;44.460;26.114;2023-01-13T08:03:58;101157.81;;;3.38;100.00
63190;BME280;49286;44.460;26.114;2023-01-13T08:06:24;101082.72;;;2.99;100.00
63190;BME280;49286;44.460;26.114;2023-01-13T08:08:50;101169.25;;;3.43;100.00
63190;BME280;49286;44.460;26.114;2023-01-13T08:11:16;101051.38;;;2.72;100.00
63190;BME280;49286;44.460;26.114;2023-01-13T08:13:41;101082.41;;;2.91;100.00
63190;BME280;49286;44.460;26.114;2023-01-13T08:16:09;101160.72;;;3.46;100.00
63190;BME280;49286;44.460;26.114;2023-01-13T08:18:36;101095.88;;;3.04;100.00
63190;BME280;49286;44.460;26.114;2023-01-13T08:21:05;101181.72;;;3.52;100.00
63190;BME280;49286;44.460;26.114;2023-01-13T08:23:32;101162.63;;;3.29;100.00
63190;BME280;49286;44.460;26.114;2023-01-13T08:26:02;101187.16;;;3.58;100.00
63190;BME280;49286;44.460;26.114;2023-01-13T08:28:29;101067.75;;;2.92;100.00
63190;BME280;49286;44.460;26.114;2023-01-13T08:30:58;101054.84;;;2.72;100.00
63190;BME280;49286;44.460;26.114;2023-01-13T08:33:24;101065.41;;;2.77;100.00
63190;BME280;49286;44.460;26.114;2023-01-13T08:35:49;101194.00;;;3.77;100.00
63190;BME280;49286;44.460;26.114;2023-01-13T08:38:17;101181.31;;;3.85;100.00
63190;BME280;49286;44.460;26.114;2023-01-13T08:40:43;101175.69;;;3.74;100.00
63190;BME280;49286;44.460;26.114;2023-01-13T08:43:08;101101.72;;;3.19;100.00
63190;BME280;49286;44.460;26.114;2023-01-13T08:45:33;101194.81;;;3.76;100.00
63190;BME280;49286;44.460;26.114;2023-01-13T08:48:00;101196.78;;;4.04;100.00
63190;BME280;49286;44.460;26.114;2023-01-13T08:50:25;101108.69;;;3.64;100.00
63190;BME280;49286;44.460;26.114;2023-01-13T08:52:51;101172.34;;;3.99;100.00
63190;BME280;49286;44.460;26.114;2023-01-13T08:55:16;101179.47;;;4.05;100.00
63190;BME280;49286;44.460;26.114;2023-01-13T08:57:42;101177.66;;;4.02;100.00
63190;BME280;49286;44.460;26.114;2023-01-13T09:00:08;101184.91;;;3.88;100.00
63190;BME280;49286;44.460;26.114;2023-01-13T09:02:34;101169.63;;;3.73;100.00
63190;BME280;49286;44.460;26.114;2023-01-13T09:04:59;101057.94;;;3.06;100.00
63190;BME280;49286;44.460;26.114;2023-01-13T09:07:28;101175.13;;;4.04;100.00
63190;BME280;49286;44.460;26.114;2023-01-13T09:09:53;101109.63;;;3.66;100.00
63190;BME280;49286;44.460;26.114;2023-01-13T09:12:21;101140.25;;;3.97;100.00
63190;BME280;49286;44.460;26.114;2023-01-13T09:15:05;101068.09;;;3.66;100.00
63190;BME280;49286;44.460;26.114;2023-01-13T09:17:30;101162.84;;;4.22;100.00
63190;BME280;49286;44.460;26.114;2023-01-13T09:19:56;101182.34;;;4.33;100.00
63190;BME280;49286;44.460;26.114;2023-01-13T09:22:21;101045.94;;;3.51;100.00
63190;BME280;49286;44.460;26.114;2023-01-13T09:24:51;101058.50;;;3.63;100.00
63190;BME280;49286;44.460;26.114;2023-01-13T09:27:17;101184.63;;;4.26;100.00
63190;BME280;49286;44.460;26.114;2023-01-13T09:29:42;101187.69;;;4.15;100.00
63190;BME280;49286;44.460;26.114;2023-01-13T09:32:12;101194.72;;;4.40;100.00
63190;BME280;49286;44.460;26.114;2023-01-13T09:34:38;101053.94;;;3.57;100.00
63190;BME280;49286;44.460;26.114;2023-01-13T09:37:23;101181.38;;;4.31;100.00
63190;BME280;49286;44.460;26.114;2023-01-13T09:39:48;101053.66;;;3.50;100.00
63190;BME280;49286;44.460;26.114;2023-01-13T09:42:29;101182.34;;;4.33;100.00
63190;BME280;49286;44.460;26.114;2023-01-13T09:53:17;101181.22;;;4.51;100.00
63190;BME280;49286;44.460;26.114;2023-01-13T09:55:43;101167.38;;;4.50;100.00
63190;BME280;49286;44.460;26.114;2023-01-13T09:58:18;101138.63;;;4.47;100.00
63190;BME280;49286;44.460;26.114;2023-01-13T10:03:30;101171.53;;;4.22;100.00
63190;BME280;49286;44.460;26.114;2023-01-13T10:06:03;101077.50;;;4.09;100.00
63190;BME280;49286;44.460;26.114;2023-01-13T10:08:40;101171.88;;;4.56;100.00
63190;BME280;49286;44.460;26.114;2023-01-13T10:11:16;101147.13;;;4.41;100.00
63190;BME280;49286;44.460;26.114;2023-01-13T10:14:18;101134.72;;;4.34;100.00
63190;BME280;49286;44.460;26.114;2023-01-13T10:16:58;101142.09;;;4.46;100.00
63190;BME280;49286;44.460;26.114;2023-01-13T10:20:37;101151.97;;;4.56;100.00
63190;BME280;49286;44.460;26.114;2023-01-13T10:25:33;101147.28;;;4.70;100.00
63190;BME280;49286;44.460;26.114;2023-01-13T10:28:18;101016.91;;;3.39;100.00
63190;BME280;49286;44.460;26.114;2023-01-13T10:30:45;101137.06;;;4.27;100.00
63190;BME280;49286;44.460;26.114;2023-01-13T10:38:42;101138.25;;;4.60;100.00
63190;BME280;49286;44.460;26.114;2023-01-13T10:44:02;101121.28;;;4.70;100.00
63190;BME280;49286;44.460;26.114;2023-01-13T10:46:33;101077.22;;;4.49;100.00
63190;BME280;49286;44.460;26.114;2023-01-13T10:49:01;101058.97;;;3.99;100.00
63190;BME280;49286;44.460;26.114;2023-01-13T10:56:39;101008.59;;;4.18;100.00
63190;BME280;49286;44.460;26.114;2023-01-13T11:01:36;101086.69;;;4.73;100.00
63190;BME280;49286;44.460;26.114;2023-01-13T11:04:24;100971.66;;;4.01;100.00
63190;BME280;49286;44.460;26.114;2023-01-13T11:06:51;101076.03;;;4.65;100.00
63190;BME280;49286;44.460;26.114;2023-01-13T11:09:19;101065.88;;;4.71;100.00
63190;BME280;49286;44.460;26.114;2023-01-13T11:11:45;101093.28;;;4.61;100.00
63190;BME280;49286;44.460;26.114;2023-01-13T11:14:26;100968.63;;;3.89;100.00
63190;BME280;49286;44.460;26.114;2023-01-13T11:17:33;101088.66;;;4.78;100.00
63190;BME280;49286;44.460;26.114;2023-01-13T11:22:53;100940.72;;;4.08;100.00
63190;BME280;49286;44.460;26.114;2023-01-13T11:25:24;101071.53;;;4.85;100.00
63190;BME280;49286;44.460;26.114;2023-01-13T11:28:26;101038.16;;;4.72;100.00
63190;BME280;49286;44.460;26.114;2023-01-13T11:33:46;101084.72;;;4.91;100.00
63190;BME280;49286;44.460;26.114;2023-01-13T11:36:17;101079.81;;;4.99;100.00
63190;BME280;49286;44.460;26.114;2023-01-13T11:38:57;101055.00;;;4.83;100.00
63190;BME280;49286;44.460;26.114;2023-01-13T11:44:21;100941.13;;;4.20;100.00
63190;BME280;49286;44.460;26.114;2023-01-13T11:46:47;101003.44;;;4.70;100.00
63190;BME280;49286;44.460;26.114;2023-01-13T11:49:26;100947.91;;;4.40;100.00
63190;BME280;49286;44.460;26.114;2023-01-13T11:55:44;100935.41;;;4.30;100.00
63190;BME280;49286;44.460;26.114;2023-01-13T11:58:08;101056.75;;;5.10;100.00
63190;BME280;49286;44.460;26.114;2023-01-13T12:03:32;100919.97;;;4.35;100.00
63190;BME280;49286;44.460;26.114;2023-01-13T12:22:51;101000.16;;;5.02;100.00
63190;BME280;49286;44.460;26.114;2023-01-13T12:25:40;100991.56;;;5.05;100.00
63190;BME280;49286;44.460;26.114;2023-01-13T12:28:15;101035.59;;;5.26;100.00
63190;BME280;49286;44.460;26.114;2023-01-13T12:42:01;100913.34;;;4.44;100.00
63190;BME280;49286;44.460;26.114;2023-01-13T12:47:37;101005.16;;;4.96;100.00
63190;BME280;49286;44.460;26.114;2023-01-13T12:52:47;101038.91;;;5.22;100.00
63190;BME280;49286;44.460;26.114;2023-01-13T13:06:06;101052.91;;;4.98;100.00
63190;BME280;49286;44.460;26.114;2023-01-13T13:14:57;101070.03;;;4.92;100.00
63190;BME280;49286;44.460;26.114;2023-01-13T13:16:50;100960.75;;;4.37;100.00
63190;BME280;49286;44.460;26.114;2023-01-13T13:24:43;101073.53;;;4.92;100.00
63190;BME280;49286;44.460;26.114;2023-01-13T13:30:33;100970.53;;;4.44;100.00
63190;BME280;49286;44.460;26.114;2023-01-13T13:36:19;101075.63;;;5.04;100.00
63190;BME280;49286;44.460;26.114;2023-01-13T13:39:25;101072.09;;;4.76;100.00
63190;BME280;49286;44.460;26.114;2023-01-13T13:42:17;101028.78;;;4.51;100.00
63190;BME280;49286;44.460;26.114;2023-01-13T13:45:15;101056.41;;;4.99;100.00
63190;BME280;49286;44.460;26.114;2023-01-13T13:48:29;101055.00;;;5.08;100.00
63190;BME280;49286;44.460;26.114;2023-01-13T13:51:00;100946.16;;;4.41;100.00
63190;BME280;49286;44.460;26.114;2023-01-13T13:53:31;101080.72;;;5.01;100.00
63190;BME280;49286;44.460;26.114;2023-01-13T13:55:59;101067.22;;;5.13;100.00
63190;BME280;49286;44.460;26.114;2023-01-13T13:58:30;101063.13;;;5.19;100.00
63190;BME280;49286;44.460;26.114;2023-01-13T14:00:58;100925.28;;;4.38;100.00
63190;BME280;49286;44.460;26.114;2023-01-13T14:03:33;101063.31;;;4.98;100.00
63190;BME280;49286;44.460;26.114;2023-01-13T14:06:01;101059.72;;;4.95;100.00
63190;BME280;49286;44.460;26.114;2023-01-13T14:08:31;100844.91;;;3.90;100.00
63190;BME280;49286;44.460;26.114;2023-01-13T14:10:57;101033.63;;;4.92;100.00
63190;BME280;49286;44.460;26.114;2023-01-13T14:13:25;101043.28;;;4.96;100.00
63190;BME280;49286;44.460;26.114;2023-01-13T14:16:05;101037.19;;;4.95;100.00
63190;BME280;49286;44.460;26.114;2023-01-13T14:18:34;101053.19;;;5.07;100.00
63190;BME280;49286;44.460;26.114;2023-01-13T14:21:27;101064.06;;;4.94;100.00
63190;BME280;49286;44.460;26.114;2023-01-13T14:23:56;101030.75;;;4.84;100.00
63190;BME280;49286;44.460;26.114;2023-01-13T14:26:28;100924.19;;;4.06;100.00
63190;BME280;49286;44.460;26.114;2023-01-13T14:28:55;100957.34;;;4.13;100.00
63190;BME280;49286;44.460;26.114;2023-01-13T14:31:21;100924.75;;;4.22;100.00
63190;BME280;49286;44.460;26.114;2023-01-13T14:33:56;101035.78;;;4.78;100.00
63190;BME280;49286;44.460;26.114;2023-01-13T14:41:35;101053.91;;;5.02;100.00
63190;BME280;49286;44.460;26.114;2023-01-13T14:44:12;101020.28;;;4.81;100.00
63190;BME280;49286;44.460;26.114;2023-01-13T14:46:41;100927.44;;;4.24;100.00
63190;BME280;49286;44.460;26.114;2023-01-13T14:51:48;101032.56;;;4.86;100.00
63190;BME280;49286;44.460;26.114;2023-01-13T14:57:31;101054.44;;;4.92;100.00
63190;BME280;49286;44.460;26.114;2023-01-13T15:04:54;101025.28;;;5.02;100.00
63190;BME280;49286;44.460;26.114;2023-01-13T15:07:30;100921.00;;;4.40;100.00
63190;BME280;49286;44.460;26.114;2023-01-13T15:10:02;101046.19;;;5.05;100.00
63190;BME280;49286;44.460;26.114;2023-01-13T15:12:34;100912.72;;;4.25;100.00
63190;BME280;49286;44.460;26.114;2023-01-13T15:15:04;100943.03;;;4.51;100.00
63190;BME280;49286;44.460;26.114;2023-01-13T15:17:30;101043.50;;;5.02;100.00
63190;BME280;49286;44.460;26.114;2023-01-13T15:19:56;100917.38;;;4.35;100.00
63190;BME280;49286;44.460;26.114;2023-01-13T15:22:21;101064.69;;;5.14;100.00
63190;BME280;49286;44.460;26.114;2023-01-13T15:24:47;101030.50;;;5.02;100.00